sensor_id;sensor_type;location;lat;lon;timestamp;P1;durP1;ratioP1;P2;durP2;ratioP2
20505;SDS011;10411;48.148;7.704;2022-12-05T00:00:28;41.80;;;37.40;;
20505;SDS011;10411;48.148;7.704;2022-12-05T00:02:54;46.80;;;39.10;;
20505;SDS011;10411;48.148;7.704;2022-12-05T00:05:20;43.10;;;37.97;;
20505;SDS011;10411;48.148;7.704;2022-12-05T00:07:46;41.73;;;37.23;;
20505;SDS011;10411;48.148;7.704;2022-12-05T00:10:12;41.27;;;36.73;;
20505;SDS011;10411;48.148;7.704;2022-12-05T00:12:38;41.93;;;37.40;;
20505;SDS011;10411;48.148;7.704;2022-12-05T00:15:05;42.20;;;36.10;;
20505;SDS011;10411;48.148;7.704;2022-12-05T00:17:33;41.60;;;36.97;;
20505;SDS011;10411;48.148;7.704;2022-12-05T00:19:59;43.60;;;37.77;;
20505;SDS011;10411;48.148;7.704;2022-12-05T00:22:25;43.87;;;36.97;;
20505;SDS011;10411;48.148;7.704;2022-12-05T00:24:51;43.80;;;37.83;;
20505;SDS011;10411;48.148;7.704;2022-12-05T00:27:17;42.90;;;37.87;;
20505;SDS011;10411;48.148;7.704;2022-12-05T00:29:43;45.60;;;38.73;;
20505;SDS011;10411;48.148;7.704;2022-12-05T00:32:09;41.53;;;37.03;;
20505;SDS011;10411;48.148;7.704;2022-12-05T00:34:35;42.30;;;37.30;;
20505;SDS011;10411;48.148;7.704;2022-12-05T00:37:01;42.23;;;37.37;;
20505;SDS011;10411;48.148;7.704;2022-12-05T00:39:27;42.10;;;36.87;;
20505;SDS011;10411;48.148;7.704;2022-12-05T00:41:53;41.50;;;37.07;;
20505;SDS011;10411;48.148;7.704;2022-12-05T00:44:19;43.53;;;38.13;;
20505;SDS011;10411;48.148;7.704;2022-12-05T00:46:45;41.20;;;36.77;;
20505;SDS011;10411;48.148;7.704;2022-12-05T00:49:11;44.43;;;39.33;;
20505;SDS011;10411;48.148;7.704;2022-12-05T00:51:38;42.43;;;37.83;;
20505;SDS011;10411;48.148;7.704;2022-12-05T00:54:06;41.90;;;37.47;;
20505;SDS011;10411;48.148;7.704;2022-12-05T00:56:32;45.60;;;39.20;;
20505;SDS011;10411;48.148;7.704;2022-12-05T00:58:59;42.47;;;37.97;;
20505;SDS011;10411;48.148;7.704;2022-12-05T01:01:27;45.50;;;37.87;;
20505;SDS011;10411;48.148;7.704;2022-12-05T01:03:54;46.83;;;38.53;;
20505;SDS011;10411;48.148;7.704;2022-12-05T01:06:21;43.27;;;37.80;;
20505;SDS011;10411;48.148;7.704;2022-12-05T01:08:47;42.90;;;38.00;;
20505;SDS011;10411;48.148;7.704;2022-12-05T01:11:14;45.40;;;38.90;;
20505;SDS011;10411;48.148;7.704;2022-12-05T01:13:41;43.57;;;37.90;;
20505;SDS011;10411;48.148;7.704;2022-12-05T01:16:12;42.17;;;37.40;;
20505;SDS011;10411;48.148;7.704;2022-12-05T01:18:38;43.03;;;37.33;;
20505;SDS011;10411;48.148;7.704;2022-12-05T01:21:04;41.73;;;37.27;;
20505;SDS011;10411;48.148;7.704;2022-12-05T01:23:30;44.90;;;38.90;;
20505;SDS011;10411;48.148;7.704;2022-12-05T01:25:56;43.47;;;38.43;;
20505;SDS011;10411;48.148;7.704;2022-12-05T01:28:22;45.50;;;38.90;;
20505;SDS011;10411;48.148;7.704;2022-12-05T01:30:48;46.27;;;39.43;;
20505;SDS011;10411;48.148;7.704;2022-12-05T01:33:15;47.20;;;39.80;;
20505;SDS011;10411;48.148;7.704;2022-12-05T01:35:41;43.47;;;38.87;;
20505;SDS011;10411;48.148;7.704;2022-12-05T01:38:08;47.43;;;39.77;;
20505;SDS011;10411;48.148;7.704;2022-12-05T01:40:34;42.97;;;37.17;;
20505;SDS011;10411;48.148;7.704;2022-12-05T01:43:01;46.53;;;38.60;;
20505;SDS011;10411;48.148;7.704;2022-12-05T01:45:34;45.60;;;38.80;;
20505;SDS011;10411;48.148;7.704;2022-12-05T01:48:01;46.17;;;38.07;;
20505;SDS011;10411;48.148;7.704;2022-12-05T01:50:28;46.20;;;39.10;;
20505;SDS011;10411;48.148;7.704;2022-12-05T01:52:54;43.97;;;37.77;;
20505;SDS011;10411;48.148;7.704;2022-12-05T01:55:20;46.53;;;38.97;;
20505;SDS011;10411;48.148;7.704;2022-12-05T01:57:46;45.93;;;38.23;;
20505;SDS011;10411;48.148;7.704;2022-12-05T02:00:14;42.07;;;37.50;;
20505;SDS011;10411;48.148;7.704;2022-12-05T02:02:42;45.47;;;38.07;;
20505;SDS011;10411;48.148;7.704;2022-12-05T02:05:10;42.93;;;36.70;;
20505;SDS011;10411;48.148;7.704;2022-12-05T02:07:37;44.60;;;36.90;;
20505;SDS011;10411;48.148;7.704;2022-12-05T02:10:04;44.50;;;36.80;;
20505;SDS011;10411;48.148;7.704;2022-12-05T02:12:30;39.87;;;35.63;;
20505;SDS011;10411;48.148;7.704;2022-12-05T02:15:01;40.50;;;36.10;;
20505;SDS011;10411;48.148;7.704;2022-12-05T02:17:39;43.23;;;37.00;;
20505;SDS011;10411;48.148;7.704;2022-12-05T02:25:27;42.77;;;35.37;;
20505;SDS011;10411;48.148;7.704;2022-12-05T02:33:18;39.90;;;34.77;;
20505;SDS011;10411;48.148;7.704;2022-12-05T02:39:17;42.00;;;35.63;;
20505;SDS011;10411;48.148;7.704;2022-12-05T02:43:50;41.63;;;35.97;;
20505;SDS011;10411;48.148;7.704;2022-12-05T02:46:20;40.63;;;36.33;;
20505;SDS011;10411;48.148;7.704;2022-12-05T02:48:47;40.57;;;34.93;;
20505;SDS011;10411;48.148;7.704;2022-12-05T02:51:16;42.50;;;35.77;;
20505;SDS011;10411;48.148;7.704;2022-12-05T02:53:43;42.07;;;36.07;;
20505;SDS011;10411;48.148;7.704;2022-12-05T02:56:10;38.00;;;34.10;;
20505;SDS011;10411;48.148;7.704;2022-12-05T02:58:40;43.50;;;35.73;;
20505;SDS011;10411;48.148;7.704;2022-12-05T03:01:08;39.30;;;35.07;;
20505;SDS011;10411;48.148;7.704;2022-12-05T03:03:35;39.87;;;35.07;;
20505;SDS011;10411;48.148;7.704;2022-12-05T03:08:33;40.67;;;35.43;;
20505;SDS011;10411;48.148;7.704;2022-12-05T03:11:00;40.10;;;35.27;;
20505;SDS011;10411;48.148;7.704;2022-12-05T03:13:30;41.13;;;35.77;;
20505;SDS011;10411;48.148;7.704;2022-12-05T03:15:58;38.73;;;34.60;;
20505;SDS011;10411;48.148;7.704;2022-12-05T03:18:26;40.60;;;34.63;;
20505;SDS011;10411;48.148;7.704;2022-12-05T03:21:17;40.73;;;35.80;;
20505;SDS011;10411;48.148;7.704;2022-12-05T03:23:41;40.73;;;35.97;;
20505;SDS011;10411;48.148;7.704;2022-12-05T03:26:17;43.73;;;36.30;;
20505;SDS011;10411;48.148;7.704;2022-12-05T03:31:20;39.73;;;34.97;;
20505;SDS011;10411;48.148;7.704;2022-12-05T03:33:47;40.13;;;35.77;;
20505;SDS011;10411;48.148;7.704;2022-12-05T03:36:19;43.43;;;37.33;;
20505;SDS011;10411;48.148;7.704;2022-12-05T03:41:21;42.57;;;36.50;;
20505;SDS011;10411;48.148;7.704;2022-12-05T03:46:26;43.97;;;37.13;;
20505;SDS011;10411;48.148;7.704;2022-12-05T03:51:20;44.37;;;37.47;;
20505;SDS011;10411;48.148;7.704;2022-12-05T03:53:48;41.70;;;36.43;;
20505;SDS011;10411;48.148;7.704;2022-12-05T03:56:20;44.47;;;36.37;;
20505;SDS011;10411;48.148;7.704;2022-12-05T03:58:50;44.93;;;37.90;;
20505;SDS011;10411;48.148;7.704;2022-12-05T04:01:17;45.27;;;38.13;;
20505;SDS011;10411;48.148;7.704;2022-12-05T04:03:45;52.13;;;38.57;;
20505;SDS011;10411;48.148;7.704;2022-12-05T04:06:23;46.63;;;38.10;;
20505;SDS011;10411;48.148;7.704;2022-12-05T04:08:55;46.90;;;37.27;;
20505;SDS011;10411;48.148;7.704;2022-12-05T04:11:23;43.40;;;36.70;;
20505;SDS011;10411;48.148;7.704;2022-12-05T04:13:58;45.50;;;37.77;;
20505;SDS011;10411;48.148;7.704;2022-12-05T04:16:30;43.30;;;35.47;;
20505;SDS011;10411;48.148;7.704;2022-12-05T04:19:16;44.30;;;37.83;;
20505;SDS011;10411;48.148;7.704;2022-12-05T04:21:45;44.07;;;37.50;;
20505;SDS011;10411;48.148;7.704;2022-12-05T04:24:13;41.13;;;36.27;;
20505;SDS011;10411;48.148;7.704;2022-12-05T04:27:08;79.20;;;53.37;;
20505;SDS011;10411;48.148;7.704;2022-12-05T04:29:37;44.43;;;38.30;;
20505;SDS011;10411;48.148;7.704;2022-12-05T04:32:05;40.10;;;35.23;;
20505;SDS011;10411;48.148;7.704;2022-12-05T04:34:33;116.67;;;72.93;;
20505;SDS011;10411;48.148;7.704;2022-12-05T04:37:03;58.33;;;42.93;;
20505;SDS011;10411;48.148;7.704;2022-12-05T04:39:46;54.60;;;39.87;;
20505;SDS011;10411;48.148;7.704;2022-12-05T04:42:15;53.87;;;41.10;;
20505;SDS011;10411;48.148;7.704;2022-12-05T04:44:43;48.40;;;39.07;;
20505;SDS011;10411;48.148;7.704;2022-12-05T04:47:10;45.40;;;36.30;;
20505;SDS011;10411;48.148;7.704;2022-12-05T04:49:38;39.23;;;35.10;;
20505;SDS011;10411;48.148;7.704;2022-12-05T04:52:06;46.33;;;37.77;;
20505;SDS011;10411;48.148;7.704;2022-12-05T04:54:38;43.13;;;35.43;;
20505;SDS011;10411;48.148;7.704;2022-12-05T04:57:18;43.17;;;35.87;;
20505;SDS011;10411;48.148;7.704;2022-12-05T04:59:47;42.70;;;35.93;;
20505;SDS011;10411;48.148;7.704;2022-12-05T05:02:14;39.17;;;34.80;;
20505;SDS011;10411;48.148;7.704;2022-12-05T05:04:48;39.53;;;35.03;;
20505;SDS011;10411;48.148;7.704;2022-12-05T05:07:15;38.77;;;34.53;;
20505;SDS011;10411;48.148;7.704;2022-12-05T05:09:41;38.83;;;34.63;;
20505;SDS011;10411;48.148;7.704;2022-12-05T05:12:08;40.93;;;35.03;;
20505;SDS011;10411;48.148;7.704;2022-12-05T05:14:34;38.47;;;34.30;;
20505;SDS011;10411;48.148;7.704;2022-12-05T05:17:00;39.40;;;35.03;;
20505;SDS011;10411;48.148;7.704;2022-12-05T05:19:26;37.33;;;33.27;;
20505;SDS011;10411;48.148;7.704;2022-12-05T05:21:52;37.63;;;33.60;;
20505;SDS011;10411;48.148;7.704;2022-12-05T05:24:18;38.50;;;34.40;;
20505;SDS011;10411;48.148;7.704;2022-12-05T05:26:45;37.30;;;33.23;;
20505;SDS011;10411;48.148;7.704;2022-12-05T05:29:12;38.67;;;34.47;;
20505;SDS011;10411;48.148;7.704;2022-12-05T05:31:38;36.17;;;32.57;;
20505;SDS011;10411;48.148;7.704;2022-12-05T05:34:04;36.53;;;32.77;;
20505;SDS011;10411;48.148;7.704;2022-12-05T05:36:31;36.20;;;32.60;;
20505;SDS011;10411;48.148;7.704;2022-12-05T05:38:58;36.20;;;32.53;;
20505;SDS011;10411;48.148;7.704;2022-12-05T05:41:28;37.20;;;33.20;;
20505;SDS011;10411;48.148;7.704;2022-12-05T05:43:55;37.00;;;33.00;;
20505;SDS011;10411;48.148;7.704;2022-12-05T05:46:22;35.73;;;32.07;;
20505;SDS011;10411;48.148;7.704;2022-12-05T05:48:49;36.70;;;32.83;;
20505;SDS011;10411;48.148;7.704;2022-12-05T05:51:15;35.17;;;31.60;;
20505;SDS011;10411;48.148;7.704;2022-12-05T05:53:42;36.17;;;32.50;;
20505;SDS011;10411;48.148;7.704;2022-12-05T05:56:09;37.17;;;33.17;;
20505;SDS011;10411;48.148;7.704;2022-12-05T05:58:35;36.93;;;33.03;;
20505;SDS011;10411;48.148;7.704;2022-12-05T06:01:05;37.53;;;33.73;;
20505;SDS011;10411;48.148;7.704;2022-12-05T06:03:34;38.57;;;33.93;;
20505;SDS011;10411;48.148;7.704;2022-12-05T06:06:04;37.90;;;33.37;;
20505;SDS011;10411;48.148;7.704;2022-12-05T06:25:14;41.73;;;37.37;;
20505;SDS011;10411;48.148;7.704;2022-12-05T06:27:40;39.80;;;35.57;;
20505;SDS011;10411;48.148;7.704;2022-12-05T06:30:06;36.73;;;33.13;;
20505;SDS011;10411;48.148;7.704;2022-12-05T06:32:32;37.67;;;34.07;;
20505;SDS011;10411;48.148;7.704;2022-12-05T06:34:58;36.97;;;33.20;;
20505;SDS011;10411;48.148;7.704;2022-12-05T06:37:27;35.53;;;31.87;;
20505;SDS011;10411;48.148;7.704;2022-12-05T06:39:53;39.97;;;34.43;;
20505;SDS011;10411;48.148;7.704;2022-12-05T06:42:22;35.87;;;32.20;;
20505;SDS011;10411;48.148;7.704;2022-12-05T06:44:48;32.57;;;29.67;;
20505;SDS011;10411;48.148;7.704;2022-12-05T06:47:14;35.20;;;31.57;;
20505;SDS011;10411;48.148;7.704;2022-12-05T06:49:47;33.70;;;30.40;;
20505;SDS011;10411;48.148;7.704;2022-12-05T06:52:13;32.93;;;29.73;;
20505;SDS011;10411;48.148;7.704;2022-12-05T06:54:40;31.10;;;28.40;;
20505;SDS011;10411;48.148;7.704;2022-12-05T06:57:08;31.90;;;29.20;;
20505;SDS011;10411;48.148;7.704;2022-12-05T06:59:34;29.73;;;27.13;;
20505;SDS011;10411;48.148;7.704;2022-12-05T07:02:00;30.40;;;27.67;;
20505;SDS011;10411;48.148;7.704;2022-12-05T07:04:28;28.77;;;26.27;;
20505;SDS011;10411;48.148;7.704;2022-12-05T07:07:00;29.80;;;27.10;;
20505;SDS011;10411;48.148;7.704;2022-12-05T07:09:26;32.40;;;29.27;;
20505;SDS011;10411;48.148;7.704;2022-12-05T07:12:15;32.20;;;29.10;;
20505;SDS011;10411;48.148;7.704;2022-12-05T07:14:44;29.43;;;26.90;;
20505;SDS011;10411;48.148;7.704;2022-12-05T07:17:10;29.20;;;26.70;;
20505;SDS011;10411;48.148;7.704;2022-12-05T07:19:39;29.57;;;27.07;;
20505;SDS011;10411;48.148;7.704;2022-12-05T07:22:11;26.03;;;24.00;;
20505;SDS011;10411;48.148;7.704;2022-12-05T07:24:37;26.13;;;24.13;;
20505;SDS011;10411;48.148;7.704;2022-12-05T07:27:10;24.90;;;22.90;;
20505;SDS011;10411;48.148;7.704;2022-12-05T07:32:40;24.80;;;23.00;;
20505;SDS011;10411;48.148;7.704;2022-12-05T07:35:06;24.77;;;22.80;;
20505;SDS011;10411;48.148;7.704;2022-12-05T07:37:32;24.80;;;22.90;;
20505;SDS011;10411;48.148;7.704;2022-12-05T07:39:58;24.57;;;22.77;;
20505;SDS011;10411;48.148;7.704;2022-12-05T07:42:24;24.87;;;22.60;;
20505;SDS011;10411;48.148;7.704;2022-12-05T07:44:53;25.20;;;23.40;;
20505;SDS011;10411;48.148;7.704;2022-12-05T07:47:19;31.43;;;28.23;;
20505;SDS011;10411;48.148;7.704;2022-12-05T07:49:47;26.13;;;24.00;;
20505;SDS011;10411;48.148;7.704;2022-12-05T07:52:15;25.93;;;23.80;;
20505;SDS011;10411;48.148;7.704;2022-12-05T07:54:44;25.90;;;23.80;;
20505;SDS011;10411;48.148;7.704;2022-12-05T07:57:13;24.90;;;22.93;;
20505;SDS011;10411;48.148;7.704;2022-12-05T07:59:39;26.80;;;24.67;;
20505;SDS011;10411;48.148;7.704;2022-12-05T08:02:05;25.83;;;23.90;;
20505;SDS011;10411;48.148;7.704;2022-12-05T08:04:33;26.83;;;24.70;;
20505;SDS011;10411;48.148;7.704;2022-12-05T08:06:59;25.33;;;23.40;;
20505;SDS011;10411;48.148;7.704;2022-12-05T08:09:25;25.93;;;23.93;;
20505;SDS011;10411;48.148;7.704;2022-12-05T08:11:51;25.17;;;22.97;;
20505;SDS011;10411;48.148;7.704;2022-12-05T08:14:20;25.97;;;23.77;;
20505;SDS011;10411;48.148;7.704;2022-12-05T08:16:46;25.23;;;23.33;;
20505;SDS011;10411;48.148;7.704;2022-12-05T08:19:16;25.87;;;23.97;;
20505;SDS011;10411;48.148;7.704;2022-12-05T08:21:42;25.40;;;23.43;;
20505;SDS011;10411;48.148;7.704;2022-12-05T08:24:08;25.47;;;23.57;;
20505;SDS011;10411;48.148;7.704;2022-12-05T08:26:34;25.70;;;23.70;;
20505;SDS011;10411;48.148;7.704;2022-12-05T08:29:11;25.50;;;23.40;;
20505;SDS011;10411;48.148;7.704;2022-12-05T08:31:41;25.27;;;23.37;;
20505;SDS011;10411;48.148;7.704;2022-12-05T08:34:08;24.10;;;22.40;;
20505;SDS011;10411;48.148;7.704;2022-12-05T08:36:37;23.97;;;22.17;;
20505;SDS011;10411;48.148;7.704;2022-12-05T08:39:04;24.07;;;22.30;;
20505;SDS011;10411;48.148;7.704;2022-12-05T08:41:31;24.17;;;22.37;;
20505;SDS011;10411;48.148;7.704;2022-12-05T08:44:01;24.10;;;22.30;;
20505;SDS011;10411;48.148;7.704;2022-12-05T08:46:31;23.60;;;21.80;;
20505;SDS011;10411;48.148;7.704;2022-12-05T08:48:58;23.43;;;21.73;;
20505;SDS011;10411;48.148;7.704;2022-12-05T08:51:27;23.60;;;21.67;;
20505;SDS011;10411;48.148;7.704;2022-12-05T08:53:55;23.63;;;22.03;;
20505;SDS011;10411;48.148;7.704;2022-12-05T08:56:24;22.73;;;21.13;;
20505;SDS011;10411;48.148;7.704;2022-12-05T08:58:50;23.53;;;21.83;;
20505;SDS011;10411;48.148;7.704;2022-12-05T09:01:19;23.50;;;21.77;;
20505;SDS011;10411;48.148;7.704;2022-12-05T09:03:49;23.53;;;21.70;;
20505;SDS011;10411;48.148;7.704;2022-12-05T09:06:18;23.40;;;21.70;;
20505;SDS011;10411;48.148;7.704;2022-12-05T09:08:45;24.23;;;22.53;;
20505;SDS011;10411;48.148;7.704;2022-12-05T09:11:18;23.30;;;21.70;;
20505;SDS011;10411;48.148;7.704;2022-12-05T09:13:47;22.57;;;21.07;;
20505;SDS011;10411;48.148;7.704;2022-12-05T09:16:23;22.60;;;21.10;;
20505;SDS011;10411;48.148;7.704;2022-12-05T09:18:50;22.90;;;21.20;;
20505;SDS011;10411;48.148;7.704;2022-12-05T09:21:23;23.03;;;21.50;;
20505;SDS011;10411;48.148;7.704;2022-12-05T09:23:52;22.63;;;21.03;;
20505;SDS011;10411;48.148;7.704;2022-12-05T09:26:23;22.37;;;20.87;;
20505;SDS011;10411;48.148;7.704;2022-12-05T09:28:51;22.50;;;21.00;;
20505;SDS011;10411;48.148;7.704;2022-12-05T09:31:24;22.07;;;20.57;;
20505;SDS011;10411;48.148;7.704;2022-12-05T09:33:51;22.67;;;21.10;;
20505;SDS011;10411;48.148;7.704;2022-12-05T09:36:23;22.87;;;21.30;;
20505;SDS011;10411;48.148;7.704;2022-12-05T09:39:05;22.77;;;21.17;;
20505;SDS011;10411;48.148;7.704;2022-12-05T09:46:59;23.67;;;22.00;;
20505;SDS011;10411;48.148;7.704;2022-12-05T09:49:30;24.53;;;22.83;;
20505;SDS011;10411;48.148;7.704;2022-12-05T09:52:00;23.47;;;21.87;;
20505;SDS011;10411;48.148;7.704;2022-12-05T09:54:27;23.13;;;21.53;;
20505;SDS011;10411;48.148;7.704;2022-12-05T09:56:55;24.10;;;22.40;;
20505;SDS011;10411;48.148;7.704;2022-12-05T09:59:42;24.03;;;22.43;;
20505;SDS011;10411;48.148;7.704;2022-12-05T10:02:23;23.73;;;22.07;;
20505;SDS011;10411;48.148;7.704;2022-12-05T10:05:03;23.70;;;22.10;;
20505;SDS011;10411;48.148;7.704;2022-12-05T10:07:36;23.27;;;21.63;;
20505;SDS011;10411;48.148;7.704;2022-12-05T10:17:47;23.40;;;21.80;;
20505;SDS011;10411;48.148;7.704;2022-12-05T10:20:23;21.80;;;20.50;;
20505;SDS011;10411;48.148;7.704;2022-12-05T10:25:44;21.80;;;20.50;;
20505;SDS011;10411;48.148;7.704;2022-12-05T10:28:26;21.90;;;20.50;;
20505;SDS011;10411;48.148;7.704;2022-12-05T10:30:57;20.93;;;19.57;;
20505;SDS011;10411;48.148;7.704;2022-12-05T10:33:25;21.13;;;19.83;;
20505;SDS011;10411;48.148;7.704;2022-12-05T10:35:53;20.80;;;19.57;;
20505;SDS011;10411;48.148;7.704;2022-12-05T10:38:26;20.93;;;19.60;;
20505;SDS011;10411;48.148;7.704;2022-12-05T10:40:54;20.90;;;19.63;;
20505;SDS011;10411;48.148;7.704;2022-12-05T10:43:24;21.03;;;19.73;;
20505;SDS011;10411;48.148;7.704;2022-12-05T10:45:56;20.90;;;19.60;;
20505;SDS011;10411;48.148;7.704;2022-12-05T10:48:22;20.63;;;19.33;;
20505;SDS011;10411;48.148;7.704;2022-12-05T10:50:52;21.00;;;19.70;;
20505;SDS011;10411;48.148;7.704;2022-12-05T10:53:30;20.93;;;19.63;;
20505;SDS011;10411;48.148;7.704;2022-12-05T10:55:59;20.87;;;19.57;;
20505;SDS011;10411;48.148;7.704;2022-12-05T10:58:26;21.30;;;19.87;;
20505;SDS011;10411;48.148;7.704;2022-12-05T11:00:56;21.47;;;20.07;;
20505;SDS011;10411;48.148;7.704;2022-12-05T11:03:30;21.97;;;20.57;;
20505;SDS011;10411;48.148;7.704;2022-12-05T11:05:57;21.23;;;19.83;;
20505;SDS011;10411;48.148;7.704;2022-12-05T11:08:33;21.60;;;20.10;;
20505;SDS011;10411;48.148;7.704;2022-12-05T11:11:05;20.97;;;19.63;;
20505;SDS011;10411;48.148;7.704;2022-12-05T11:13:32;21.23;;;19.93;;
20505;SDS011;10411;48.148;7.704;2022-12-05T11:16:01;20.40;;;19.20;;
20505;SDS011;10411;48.148;7.704;2022-12-05T11:18:29;20.40;;;19.20;;
20505;SDS011;10411;48.148;7.704;2022-12-05T11:20:56;21.20;;;19.90;;
20505;SDS011;10411;48.148;7.704;2022-12-05T11:23:24;21.37;;;19.97;;
20505;SDS011;10411;48.148;7.704;2022-12-05T11:25:51;20.67;;;19.37;;
20505;SDS011;10411;48.148;7.704;2022-12-05T11:28:22;20.40;;;19.20;;
20505;SDS011;10411;48.148;7.704;2022-12-05T11:30:56;20.20;;;18.97;;
20505;SDS011;10411;48.148;7.704;2022-12-05T11:33:22;20.37;;;19.07;;
20505;SDS011;10411;48.148;7.704;2022-12-05T11:35:49;20.83;;;19.53;;
20505;SDS011;10411;48.148;7.704;2022-12-05T11:38:16;21.03;;;19.63;;
20505;SDS011;10411;48.148;7.704;2022-12-05T11:40:46;20.97;;;19.67;;
20505;SDS011;10411;48.148;7.704;2022-12-05T11:48:19;21.03;;;19.63;;
20505;SDS011;10411;48.148;7.704;2022-12-05T12:06:08;21.53;;;20.07;;
20505;SDS011;10411;48.148;7.704;2022-12-05T12:11:22;21.47;;;20.13;;
20505;SDS011;10411;48.148;7.704;2022-12-05T12:21:57;21.73;;;20.23;;
20505;SDS011;10411;48.148;7.704;2022-12-05T12:43:31;21.20;;;19.80;;
20505;SDS011;10411;48.148;7.704;2022-12-05T12:51:31;20.87;;;19.47;;
20505;SDS011;10411;48.148;7.704;2022-12-05T12:54:03;21.40;;;20.00;;
20505;SDS011;10411;48.148;7.704;2022-12-05T12:56:37;20.07;;;18.80;;
20505;SDS011;10411;48.148;7.704;2022-12-05T13:01:58;21.13;;;19.37;;
20505;SDS011;10411;48.148;7.704;2022-12-05T13:04:30;21.07;;;19.73;;
20505;SDS011;10411;48.148;7.704;2022-12-05T13:07:11;21.70;;;20.13;;
20505;SDS011;10411;48.148;7.704;2022-12-05T13:09:44;21.90;;;20.43;;
20505;SDS011;10411;48.148;7.704;2022-12-05T13:15:15;21.13;;;19.77;;
20505;SDS011;10411;48.148;7.704;2022-12-05T13:17:56;21.37;;;20.03;;
20505;SDS011;10411;48.148;7.704;2022-12-05T13:20:23;20.93;;;19.60;;
20505;SDS011;10411;48.148;7.704;2022-12-05T13:26:34;21.67;;;20.27;;
20505;SDS011;10411;48.148;7.704;2022-12-05T13:29:04;21.43;;;20.13;;
20505;SDS011;10411;48.148;7.704;2022-12-05T13:34:54;20.97;;;19.67;;
20505;SDS011;10411;48.148;7.704;2022-12-05T13:37:24;21.60;;;20.20;;
20505;SDS011;10411;48.148;7.704;2022-12-05T13:40:23;20.80;;;19.50;;
20505;SDS011;10411;48.148;7.704;2022-12-05T13:43:09;21.03;;;19.73;;
20505;SDS011;10411;48.148;7.704;2022-12-05T13:45:41;20.50;;;19.17;;
20505;SDS011;10411;48.148;7.704;2022-12-05T13:48:24;20.87;;;19.47;;
20505;SDS011;10411;48.148;7.704;2022-12-05T13:51:00;20.20;;;18.90;;
20505;SDS011;10411;48.148;7.704;2022-12-05T13:53:37;20.00;;;18.80;;
20505;SDS011;10411;48.148;7.704;2022-12-05T13:58:55;20.10;;;18.93;;
20505;SDS011;10411;48.148;7.704;2022-12-05T14:11:35;20.60;;;19.27;;
20505;SDS011;10411;48.148;7.704;2022-12-05T14:14:00;22.53;;;20.90;;
20505;SDS011;10411;48.148;7.704;2022-12-05T14:19:04;21.23;;;19.93;;
20505;SDS011;10411;48.148;7.704;2022-12-05T14:21:39;20.43;;;19.23;;
20505;SDS011;10411;48.148;7.704;2022-12-05T14:34:32;20.60;;;19.40;;
20505;SDS011;10411;48.148;7.704;2022-12-05T14:39:37;20.13;;;18.93;;
20505;SDS011;10411;48.148;7.704;2022-12-05T14:42:18;19.47;;;18.27;;
20505;SDS011;10411;48.148;7.704;2022-12-05T14:44:46;19.50;;;18.40;;
20505;SDS011;10411;48.148;7.704;2022-12-05T14:47:17;19.30;;;18.20;;
20505;SDS011;10411;48.148;7.704;2022-12-05T14:49:54;20.07;;;18.87;;
20505;SDS011;10411;48.148;7.704;2022-12-05T14:52:23;18.97;;;17.97;;
20505;SDS011;10411;48.148;7.704;2022-12-05T14:54:50;19.70;;;18.50;;
20505;SDS011;10411;48.148;7.704;2022-12-05T14:57:16;19.27;;;18.27;;
20505;SDS011;10411;48.148;7.704;2022-12-05T14:59:47;22.47;;;20.97;;
20505;SDS011;10411;48.148;7.704;2022-12-05T15:02:37;24.80;;;23.00;;
20505;SDS011;10411;48.148;7.704;2022-12-05T15:05:12;23.37;;;21.87;;
20505;SDS011;10411;48.148;7.704;2022-12-05T15:07:42;20.90;;;19.70;;
20505;SDS011;10411;48.148;7.704;2022-12-05T15:12:47;21.07;;;19.77;;
20505;SDS011;10411;48.148;7.704;2022-12-05T15:17:53;21.90;;;20.17;;
20505;SDS011;10411;48.148;7.704;2022-12-05T15:29:10;20.53;;;19.13;;
20505;SDS011;10411;48.148;7.704;2022-12-05T15:31:50;20.10;;;18.80;;
20505;SDS011;10411;48.148;7.704;2022-12-05T15:39:51;20.80;;;19.20;;
20505;SDS011;10411;48.148;7.704;2022-12-05T15:42:17;21.40;;;19.50;;
20505;SDS011;10411;48.148;7.704;2022-12-05T15:44:44;20.47;;;19.07;;
20505;SDS011;10411;48.148;7.704;2022-12-05T15:50:18;21.30;;;20.00;;
20505;SDS011;10411;48.148;7.704;2022-12-05T15:58:42;22.83;;;21.03;;
20505;SDS011;10411;48.148;7.704;2022-12-05T16:00:49;22.23;;;20.73;;
20505;SDS011;10411;48.148;7.704;2022-12-05T16:03:19;21.33;;;19.93;;
20505;SDS011;10411;48.148;7.704;2022-12-05T16:05:56;22.10;;;20.60;;
20505;SDS011;10411;48.148;7.704;2022-12-05T16:08:23;21.20;;;19.80;;
20505;SDS011;10411;48.148;7.704;2022-12-05T16:10:54;20.83;;;19.50;;
20505;SDS011;10411;48.148;7.704;2022-12-05T16:13:20;20.10;;;18.90;;
20505;SDS011;10411;48.148;7.704;2022-12-05T16:15:48;21.00;;;19.50;;
20505;SDS011;10411;48.148;7.704;2022-12-05T16:18:21;20.53;;;19.27;;
20505;SDS011;10411;48.148;7.704;2022-12-05T16:20:48;20.73;;;19.33;;
20505;SDS011;10411;48.148;7.704;2022-12-05T16:23:33;21.07;;;19.57;;
20505;SDS011;10411;48.148;7.704;2022-12-05T16:28:42;20.23;;;18.73;;
20505;SDS011;10411;48.148;7.704;2022-12-05T16:31:23;20.90;;;19.40;;
20505;SDS011;10411;48.148;7.704;2022-12-05T16:34:13;21.23;;;19.73;;
20505;SDS011;10411;48.148;7.704;2022-12-05T16:36:46;20.53;;;19.30;;
20505;SDS011;10411;48.148;7.704;2022-12-05T16:39:19;20.77;;;19.47;;
20505;SDS011;10411;48.148;7.704;2022-12-05T16:42:14;19.60;;;18.40;;
20505;SDS011;10411;48.148;7.704;2022-12-05T16:47:21;19.87;;;18.67;;
20505;SDS011;10411;48.148;7.704;2022-12-05T16:49:51;19.70;;;18.60;;
20505;SDS011;10411;48.148;7.704;2022-12-05T16:52:17;21.07;;;19.67;;
20505;SDS011;10411;48.148;7.704;2022-12-05T16:54:49;20.30;;;19.00;;
20505;SDS011;10411;48.148;7.704;2022-12-05T16:57:20;20.17;;;18.97;;
20505;SDS011;10411;48.148;7.704;2022-12-05T16:59:46;20.17;;;19.00;;
20505;SDS011;10411;48.148;7.704;2022-12-05T17:02:16;20.27;;;19.07;;
20505;SDS011;10411;48.148;7.704;2022-12-05T17:04:51;20.63;;;19.33;;
20505;SDS011;10411;48.148;7.704;2022-12-05T17:07:23;20.50;;;19.20;;
20505;SDS011;10411;48.148;7.704;2022-12-05T17:10:14;20.03;;;18.70;;
20505;SDS011;10411;48.148;7.704;2022-12-05T17:12:50;20.43;;;19.13;;
20505;SDS011;10411;48.148;7.704;2022-12-05T17:15:19;20.60;;;19.40;;
20505;SDS011;10411;48.148;7.704;2022-12-05T17:20:37;20.10;;;18.80;;
20505;SDS011;10411;48.148;7.704;2022-12-05T17:23:05;20.60;;;19.30;;
20505;SDS011;10411;48.148;7.704;2022-12-05T17:25:32;20.30;;;19.00;;
20505;SDS011;10411;48.148;7.704;2022-12-05T17:28:00;19.93;;;18.67;;
20505;SDS011;10411;48.148;7.704;2022-12-05T17:30:29;20.70;;;19.40;;
20505;SDS011;10411;48.148;7.704;2022-12-05T17:33:01;21.00;;;19.60;;
20505;SDS011;10411;48.148;7.704;2022-12-05T18:31:35;24.00;;;22.23;;
20505;SDS011;10411;48.148;7.704;2022-12-05T18:54:25;22.00;;;20.50;;
20505;SDS011;10411;48.148;7.704;2022-12-05T18:56:51;21.70;;;20.10;;
20505;SDS011;10411;48.148;7.704;2022-12-05T18:59:20;32.33;;;29.13;;
20505;SDS011;10411;48.148;7.704;2022-12-05T19:01:57;22.90;;;21.30;;
20505;SDS011;10411;48.148;7.704;2022-12-05T19:04:43;23.07;;;21.27;;
20505;SDS011;10411;48.148;7.704;2022-12-05T19:07:20;22.83;;;21.30;;
20505;SDS011;10411;48.148;7.704;2022-12-05T19:10:05;22.77;;;21.07;;